Airport ICAO


09:07 UTC

6°C

Clear skies


An affordable passengers' Moving Map for your aircraft. Made for the iPad and the iPhone
More information here

LFMD Mandelieu


Cannes FRANCE   VFR CAVOK


METAR LFMD 180900Z AUTO VRB03KT CAVOK 06/M01 Q1011 NOSIG 0h07min

TAF LFMD 180800Z 1809/1909 34010KT CAVOK BECMG 1811/1813 24010KT BECMG 1817/1819 36010KT 1h07min





NOTAMS

OPEN